Terminal Aerodrome Forecast
Issued by NWS

Home | Current Version | Previous Version | Graphics & Text | Print | Product List | Glossary On
Versions: 1 2 3 4 5 6 7 8 9 10 11 12 13 14 15
000
FTUS43 KGRB 172300
TAFAUW
TAF
KAUW 172337Z 1800/1824 34013G23KT P6SM VCSH SCT015 OVC025
     FM180200 33010G14KT P6SM VCSH BKN020 OVC035
     FM180800 33009KT P6SM BKN020 BKN060
     FM181300 34009KT P6SM SCT025 BKN060
     FM181500 33009G16KT P6SM SKC=

USA.gov is the U.S. government's official web portal to all federal, state and local government web resources and services.